»·PEaware :: N588CP KSJN-KSNA

N588CP :: KSJN-KSNA

FLIGHT INFORMATION

Flight Status: Arrived
Operator: Privately registered:
United States
More flights under this callsign
Pilot: Ben L. (9444)
Aircraft: PIPER PA-24 COMMANCHE
(PA24)
More flights by this aircraft type
Origin: KSJN St Johns Industrial
United States
Destination: KSNA John Wayne-Orange Co
United States
More flights between these airports :: More routes between these airports
Route: +SJN V190 PXR T306 BLH V64 TRM HDF V283 SLI
File this flight plan on PilotEdge
Remarks:
Altitude:
(Current/Filed)
14,000ft
Speed:
(Current/Filed)
156kts
Departed: 10-Jan-18 05:47 PM
Arrived: 10-Jan-18 07:25 PM
Distance/Time
Traveled:
425nm/1:38
Distance/Time
To Go:
Arrived

Flight Plot

Page will automatically refresh every two minutes.

Flight plan parsing failed; only flown route is shown


Map Options




Map Legend


Flown Route
Filed Route
Departure Airport
Arrival Airport
Navaid (VOR, NDB)
Fix

Horizontal Profiles

Position Reports

Time Latitude Longitude Heading Altitude Ground
Speed
10-Jan-18 17:52 33.569185 -114.366450 294 13985ft 101kts
10-Jan-18 17:53 33.572157 -114.400909 288 13986ft 105kts
10-Jan-18 17:54 33.573944 -114.435762 290 13998ft 104kts
10-Jan-18 17:55 33.576872 -114.470599 288 13998ft 106kts
10-Jan-18 17:56 33.578472 -114.505884 289 14000ft 105kts
10-Jan-18 17:57 33.581525 -114.540495 291 13998ft 104kts
10-Jan-18 17:58 33.583564 -114.575644 288 13998ft 105kts
10-Jan-18 17:59 33.585967 -114.610427 291 13997ft 103kts
10-Jan-18 18:00 33.588763 -114.645187 290 14001ft 104kts
10-Jan-18 18:01 33.590175 -114.680567 288 13997ft 106kts
10-Jan-18 18:02 33.592680 -114.715450 293 13998ft 103kts
10-Jan-18 18:03 33.595600 -114.750259 288 13998ft 106kts
10-Jan-18 18:04 33.596182 -114.786062 287 13996ft 107kts
10-Jan-18 18:05 33.597995 -114.821664 288 13997ft 107kts
10-Jan-18 18:06 33.598602 -114.857746 286 13999ft 109kts
10-Jan-18 18:07 33.599493 -114.893799 288 13998ft 107kts
10-Jan-18 18:08 33.600776 -114.929708 287 13998ft 108kts
10-Jan-18 18:09 33.601643 -114.965759 288 13998ft 108kts
10-Jan-18 18:10 33.603511 -115.001788 285 13996ft 110kts
10-Jan-18 18:11 33.603262 -115.038655 287 13999ft 109kts
10-Jan-18 18:12 33.605185 -115.075005 290 14000ft 108kts
10-Jan-18 18:13 33.605343 -115.111893 287 13998ft 109kts
10-Jan-18 18:14 33.606395 -115.148491 287 13997ft 109kts
10-Jan-18 18:15 33.607204 -115.184982 286 13997ft 110kts
10-Jan-18 18:16 33.608563 -115.221712 287 13998ft 111kts
10-Jan-18 18:17 33.609018 -115.258920 286 13999ft 111kts
10-Jan-18 18:18 33.610840 -115.295550 288 14013ft 110kts
10-Jan-18 18:19 33.610495 -115.332893 285 14018ft 111kts
10-Jan-18 18:20 33.611719 -115.369845 292 14018ft 109kts
10-Jan-18 18:21 33.613354 -115.406896 284 14018ft 114kts
10-Jan-18 18:22 33.612781 -115.444704 287 14017ft 112kts
10-Jan-18 18:23 33.616150 -115.481115 287 14022ft 113kts
10-Jan-18 18:24 33.614687 -115.519842 284 14019ft 115kts
10-Jan-18 18:25 33.616875 -115.557058 291 14018ft 111kts
10-Jan-18 18:26 33.617290 -115.595145 283 14019ft 115kts
10-Jan-18 18:27 33.617478 -115.633087 290 14021ft 112kts
10-Jan-18 18:28 33.619538 -115.670835 285 14023ft 115kts
10-Jan-18 18:29 33.618673 -115.709722 285 14021ft 115kts
10-Jan-18 18:30 33.620846 -115.747302 288 14022ft 113kts
10-Jan-18 18:31 33.621326 -115.785732 285 14025ft 115kts
10-Jan-18 18:32 33.621667 -115.824019 288 14027ft 114kts
10-Jan-18 18:33 33.623347 -115.863926 286 14032ft 124kts
10-Jan-18 18:34 33.623351 -115.906036 286 14032ft 125kts
10-Jan-18 18:35 33.624753 -115.947870 286 14014ft 126kts
10-Jan-18 18:36 33.625024 -115.990151 283 14024ft 127kts
10-Jan-18 18:37 33.626502 -116.031897 287 14022ft 125kts
10-Jan-18 18:38 33.627095 -116.073861 285 14020ft 126kts
10-Jan-18 18:39 33.626901 -116.116451 287 14018ft 124kts
10-Jan-18 18:40 33.628611 -116.158195 284 14019ft 126kts
10-Jan-18 18:41 33.632281 -116.199125 293 14017ft 121kts
10-Jan-18 18:42 33.640028 -116.237763 294 14021ft 120kts
10-Jan-18 18:43 33.645875 -116.277476 292 14023ft 121kts
10-Jan-18 18:44 33.651529 -116.317330 294 14029ft 120kts
10-Jan-18 18:45 33.657667 -116.357168 292 14035ft 121kts
10-Jan-18 18:46 33.663312 -116.397173 293 14041ft 121kts
10-Jan-18 18:47 33.669390 -116.437102 293 14044ft 121kts
10-Jan-18 18:48 33.675004 -116.476913 294 14047ft 119kts
10-Jan-18 18:49 33.680901 -116.516627 293 14048ft 121kts
10-Jan-18 18:50 33.686640 -116.556283 293 14051ft 120kts
10-Jan-18 18:51 33.692671 -116.595910 293 14052ft 120kts
10-Jan-18 18:52 33.697909 -116.635397 290 14053ft 121kts
10-Jan-18 18:53 33.702956 -116.675037 294 14056ft 118kts
10-Jan-18 18:54 33.709494 -116.713757 292 14061ft 119kts
10-Jan-18 18:55 33.714447 -116.753496 291 13978ft 124kts
10-Jan-18 18:56 33.720579 -116.793569 293 13960ft 119kts
10-Jan-18 18:57 33.726279 -116.832908 292 13962ft 119kts
10-Jan-18 18:58 33.730677 -116.872496 294 13967ft 117kts
10-Jan-18 18:59 33.737659 -116.910483 294 13969ft 117kts
10-Jan-18 19:00 33.743073 -116.949676 289 13550ft 119kts
10-Jan-18 19:01 33.748232 -116.988770 294 12909ft 119kts
10-Jan-18 19:02 33.754879 -117.027972 292 12336ft 121kts
10-Jan-18 19:03 33.759260 -117.068438 291 11838ft 121kts
10-Jan-18 19:04 33.764891 -117.107848 295 11603ft 118kts
10-Jan-18 19:05 33.770823 -117.140071 293 11429ft 118kts
10-Jan-18 19:06 33.776150 -117.186681 291 11155ft 122kts
10-Jan-18 19:07 33.777466 -117.229650 284 10674ft 129kts
10-Jan-18 19:08 33.778117 -117.265792 283 10155ft 131kts
10-Jan-18 19:09 33.777557 -117.310178 284 9586ft 131kts
10-Jan-18 19:10 33.778126 -117.354326 283 9072ft 133kts
10-Jan-18 19:11 33.778752 -117.398972 281 8606ft 133kts
10-Jan-18 19:12 33.778769 -117.443163 281 8192ft 132kts
10-Jan-18 19:13 33.779326 -117.486145 280 8020ft 133kts
10-Jan-18 19:14 33.779993 -117.532542 281 8000ft 138kts
10-Jan-18 19:15 33.779802 -117.579659 278 7473ft 145kts
10-Jan-18 19:16 33.785458 -117.625369 299 6989ft 133kts
10-Jan-18 19:17 33.798796 -117.666648 299 6555ft 132kts
10-Jan-18 19:18 33.812784 -117.707775 299 6103ft 133kts
10-Jan-18 19:19 33.827443 -117.749282 299 5604ft 134kts
10-Jan-18 19:20 33.816441 -117.790165 220 4409ft 173kts
10-Jan-18 19:21 33.784812 -117.818385 219 3376ft 121kts
10-Jan-18 19:22 33.760349 -117.840572 210 2796ft 109kts
10-Jan-18 19:23 33.733812 -117.841781 142 1825ft 110kts
10-Jan-18 19:24 33.709055 -117.848458 207 945ft 82kts
10-Jan-18 19:25 33.691507 -117.858898 202 398ft 67kts
10-Jan-18 19:26 33.670764 -117.875206 214 911ft 119kts
10-Jan-18 19:27 33.676732 -117.899513 18 1844ft 110kts
10-Jan-18 19:28 33.703369 -117.880367 37 1589ft 106kts
10-Jan-18 19:29 33.703691 -117.857817 162 1056ft 74kts
10-Jan-18 19:30 33.685409 -117.862781 204 238ft 63kts
10-Jan-18 19:31 33.674739 -117.868610 163 59ft 11kts
10-Jan-18 19:32 33.673920 -117.867614 119 59ft 4kts
10-Jan-18 19:33 33.672611 -117.867847 211 59ft 14kts
10-Jan-18 19:34 33.669561 -117.870462 220 59ft 7kts
10-Jan-18 19:35 33.667873 -117.872181 220 59ft 6kts
10-Jan-18 19:36 33.666251 -117.873543 206 59ft 0kts
10-Jan-18 19:37 33.665977 -117.873464 68 59ft 0kts
10-Jan-18 19:38 33.666192 -117.873307 28 59ft 0kts
10-Jan-18 19:39 33.666184 -117.873312 28 59ft 0kts
10-Jan-18 19:40 33.666184 -117.873312 28 59ft 0kts
10-Jan-18 19:41 33.666184 -117.873312 28 59ft 0kts
10-Jan-18 19:42 33.666184 -117.873312 28 59ft 0kts
10-Jan-18 19:43 33.666184 -117.873312 28 59ft 0kts
10-Jan-18 19:44 33.666184 -117.873312 28 59ft 0kts
10-Jan-18 19:45 33.666184 -117.873312 28 59ft 0kts
10-Jan-18 19:46 33.666184 -117.873312 28 59ft 0kts

Navigation Log

Ident Type
Flight plan parsing failed, navigation log unavailable